sensor_id;sensor_type;location;lat;lon;timestamp;temperature;humidity
23305;DHT22;11821;51.456;8.844;2023-05-07T00:01:03;16.90;99.90
23305;DHT22;11821;51.456;8.844;2023-05-07T00:05:58;17.00;99.90
23305;DHT22;11821;51.456;8.844;2023-05-07T00:08:24;16.90;99.90
23305;DHT22;11821;51.456;8.844;2023-05-07T00:10:51;16.90;99.90
23305;DHT22;11821;51.456;8.844;2023-05-07T00:13:17;16.90;99.90
23305;DHT22;11821;51.456;8.844;2023-05-07T00:15:43;16.90;99.90
23305;DHT22;11821;51.456;8.844;2023-05-07T00:18:09;16.90;99.90
23305;DHT22;11821;51.456;8.844;2023-05-07T00:20:36;16.80;99.90
23305;DHT22;11821;51.456;8.844;2023-05-07T00:23:02;16.90;99.90
23305;DHT22;11821;51.456;8.844;2023-05-07T00:25:28;16.80;99.90
23305;DHT22;11821;51.456;8.844;2023-05-07T00:27:55;16.80;99.90
23305;DHT22;11821;51.456;8.844;2023-05-07T00:37:41;16.90;99.90
23305;DHT22;11821;51.456;8.844;2023-05-07T00:40:08;16.90;99.90
23305;DHT22;11821;51.456;8.844;2023-05-07T00:52:21;16.80;99.90
23305;DHT22;11821;51.456;8.844;2023-05-07T01:12:01;16.70;99.90
23305;DHT22;11821;51.456;8.844;2023-05-07T01:14:28;16.60;99.90
23305;DHT22;11821;51.456;8.844;2023-05-07T01:16:55;16.60;99.90
23305;DHT22;11821;51.456;8.844;2023-05-07T01:19:23;16.40;99.90
23305;DHT22;11821;51.456;8.844;2023-05-07T01:21:51;16.40;99.90
23305;DHT22;11821;51.456;8.844;2023-05-07T01:24:19;16.40;99.90
23305;DHT22;11821;51.456;8.844;2023-05-07T01:41:32;16.30;99.90
23305;DHT22;11821;51.456;8.844;2023-05-07T01:43:59;16.40;99.90
23305;DHT22;11821;51.456;8.844;2023-05-07T01:51:20;16.40;99.90
23305;DHT22;11821;51.456;8.844;2023-05-07T01:53:48;16.20;99.90
23305;DHT22;11821;51.456;8.844;2023-05-07T01:56:18;16.20;99.90
23305;DHT22;11821;51.456;8.844;2023-05-07T01:58:45;16.20;99.90
23305;DHT22;11821;51.456;8.844;2023-05-07T02:01:13;16.10;99.90
23305;DHT22;11821;51.456;8.844;2023-05-07T02:03:40;16.20;99.90
23305;DHT22;11821;51.456;8.844;2023-05-07T02:06:14;16.20;99.90
23305;DHT22;11821;51.456;8.844;2023-05-07T02:08:40;16.20;99.90
23305;DHT22;11821;51.456;8.844;2023-05-07T02:11:06;16.20;99.90
23305;DHT22;11821;51.456;8.844;2023-05-07T02:16:02;16.10;99.90
23305;DHT22;11821;51.456;8.844;2023-05-07T02:18:28;16.10;99.90
23305;DHT22;11821;51.456;8.844;2023-05-07T02:28:15;16.20;99.90
23305;DHT22;11821;51.456;8.844;2023-05-07T02:36:11;16.10;99.90
23305;DHT22;11821;51.456;8.844;2023-05-07T02:38:58;16.30;99.90
23305;DHT22;11821;51.456;8.844;2023-05-07T02:41:24;16.20;99.90
23305;DHT22;11821;51.456;8.844;2023-05-07T02:43:51;16.10;99.90
23305;DHT22;11821;51.456;8.844;2023-05-07T02:46:17;16.10;99.90
23305;DHT22;11821;51.456;8.844;2023-05-07T02:48:48;16.10;99.90
23305;DHT22;11821;51.456;8.844;2023-05-07T02:51:14;16.10;99.90
23305;DHT22;11821;51.456;8.844;2023-05-07T02:53:42;15.90;99.90
23305;DHT22;11821;51.456;8.844;2023-05-07T02:56:08;15.90;99.90
23305;DHT22;11821;51.456;8.844;2023-05-07T02:58:34;15.90;99.90
23305;DHT22;11821;51.456;8.844;2023-05-07T03:01:02;15.90;99.90
23305;DHT22;11821;51.456;8.844;2023-05-07T03:03:34;15.80;99.90
23305;DHT22;11821;51.456;8.844;2023-05-07T03:06:01;15.80;99.90
23305;DHT22;11821;51.456;8.844;2023-05-07T03:08:28;15.80;99.90
23305;DHT22;11821;51.456;8.844;2023-05-07T03:10:54;15.80;99.90
23305;DHT22;11821;51.456;8.844;2023-05-07T03:13:20;15.80;99.90
23305;DHT22;11821;51.456;8.844;2023-05-07T03:15:48;15.60;99.90
23305;DHT22;11821;51.456;8.844;2023-05-07T03:18:14;15.50;99.90
23305;DHT22;11821;51.456;8.844;2023-05-07T03:20:40;15.40;99.90
23305;DHT22;11821;51.456;8.844;2023-05-07T03:23:07;15.50;99.90
23305;DHT22;11821;51.456;8.844;2023-05-07T03:25:33;15.60;99.90
23305;DHT22;11821;51.456;8.844;2023-05-07T03:28:00;15.50;99.90
23305;DHT22;11821;51.456;8.844;2023-05-07T03:30:35;15.50;99.90
23305;DHT22;11821;51.456;8.844;2023-05-07T03:33:01;15.40;99.90
23305;DHT22;11821;51.456;8.844;2023-05-07T03:35:28;15.40;99.90
23305;DHT22;11821;51.456;8.844;2023-05-07T03:37:54;15.20;99.90
23305;DHT22;11821;51.456;8.844;2023-05-07T03:40:22;15.30;99.90
23305;DHT22;11821;51.456;8.844;2023-05-07T03:42:52;15.40;99.90
23305;DHT22;11821;51.456;8.844;2023-05-07T03:45:22;15.30;99.90
23305;DHT22;11821;51.456;8.844;2023-05-07T03:47:57;15.20;99.90
23305;DHT22;11821;51.456;8.844;2023-05-07T03:50:23;15.30;99.90
23305;DHT22;11821;51.456;8.844;2023-05-07T03:52:50;15.30;99.90
23305;DHT22;11821;51.456;8.844;2023-05-07T03:55:19;15.30;99.90
23305;DHT22;11821;51.456;8.844;2023-05-07T03:57:50;15.30;99.90
23305;DHT22;11821;51.456;8.844;2023-05-07T04:00:18;15.30;99.90
23305;DHT22;11821;51.456;8.844;2023-05-07T04:02:48;15.40;99.90
23305;DHT22;11821;51.456;8.844;2023-05-07T04:05:19;15.30;99.90
23305;DHT22;11821;51.456;8.844;2023-05-07T04:07:50;15.40;99.90
23305;DHT22;11821;51.456;8.844;2023-05-07T04:10:20;15.40;99.90
23305;DHT22;11821;51.456;8.844;2023-05-07T04:12:49;15.50;99.90
23305;DHT22;11821;51.456;8.844;2023-05-07T04:15:20;15.40;99.90
23305;DHT22;11821;51.456;8.844;2023-05-07T04:17:46;15.50;99.90
23305;DHT22;11821;51.456;8.844;2023-05-07T04:20:16;15.40;99.90
23305;DHT22;11821;51.456;8.844;2023-05-07T04:22:44;15.50;99.90
23305;DHT22;11821;51.456;8.844;2023-05-07T04:25:10;15.40;99.90
23305;DHT22;11821;51.456;8.844;2023-05-07T04:27:37;15.50;99.90
23305;DHT22;11821;51.456;8.844;2023-05-07T04:30:05;15.50;99.90
23305;DHT22;11821;51.456;8.844;2023-05-07T04:32:37;15.50;99.90
23305;DHT22;11821;51.456;8.844;2023-05-07T04:35:06;15.30;99.90
23305;DHT22;11821;51.456;8.844;2023-05-07T04:37:33;15.20;99.90
23305;DHT22;11821;51.456;8.844;2023-05-07T04:40:00;15.30;99.90
23305;DHT22;11821;51.456;8.844;2023-05-07T04:42:27;15.40;99.90
23305;DHT22;11821;51.456;8.844;2023-05-07T04:47:23;15.50;99.90
23305;DHT22;11821;51.456;8.844;2023-05-07T04:49:50;15.40;99.90
23305;DHT22;11821;51.456;8.844;2023-05-07T04:52:17;15.20;99.90
23305;DHT22;11821;51.456;8.844;2023-05-07T04:54:43;15.00;99.90
23305;DHT22;11821;51.456;8.844;2023-05-07T04:57:09;15.10;99.90
23305;DHT22;11821;51.456;8.844;2023-05-07T04:59:36;15.10;99.90
23305;DHT22;11821;51.456;8.844;2023-05-07T05:02:02;15.20;99.90
23305;DHT22;11821;51.456;8.844;2023-05-07T05:04:30;15.40;99.90
23305;DHT22;11821;51.456;8.844;2023-05-07T05:14:17;15.50;99.90
23305;DHT22;11821;51.456;8.844;2023-05-07T05:16:43;15.10;99.90
23305;DHT22;11821;51.456;8.844;2023-05-07T05:19:10;15.00;99.90
23305;DHT22;11821;51.456;8.844;2023-05-07T05:21:39;15.00;99.90
23305;DHT22;11821;51.456;8.844;2023-05-07T05:24:08;15.20;99.90
23305;DHT22;11821;51.456;8.844;2023-05-07T05:26:35;15.30;99.90
23305;DHT22;11821;51.456;8.844;2023-05-07T05:31:30;15.20;99.90
23305;DHT22;11821;51.456;8.844;2023-05-07T05:33:57;15.10;99.90
23305;DHT22;11821;51.456;8.844;2023-05-07T05:36:24;15.00;99.90
23305;DHT22;11821;51.456;8.844;2023-05-07T05:38:53;14.80;99.90
23305;DHT22;11821;51.456;8.844;2023-05-07T05:41:21;14.70;99.90
23305;DHT22;11821;51.456;8.844;2023-05-07T05:43:48;14.80;99.90
23305;DHT22;11821;51.456;8.844;2023-05-07T05:46:14;14.90;99.90
23305;DHT22;11821;51.456;8.844;2023-05-07T05:48:41;15.00;99.90
23305;DHT22;11821;51.456;8.844;2023-05-07T05:51:08;15.00;99.90
23305;DHT22;11821;51.456;8.844;2023-05-07T05:53:34;15.10;99.90
23305;DHT22;11821;51.456;8.844;2023-05-07T05:56:01;15.10;99.90
23305;DHT22;11821;51.456;8.844;2023-05-07T05:58:30;15.20;99.90
23305;DHT22;11821;51.456;8.844;2023-05-07T07:00:40;15.30;99.90
23305;DHT22;11821;51.456;8.844;2023-05-07T07:17:51;15.50;99.90
23305;DHT22;11821;51.456;8.844;2023-05-07T07:20:18;15.80;99.90
23305;DHT22;11821;51.456;8.844;2023-05-07T07:22:45;15.70;99.90
23305;DHT22;11821;51.456;8.844;2023-05-07T07:25:12;15.80;99.90
23305;DHT22;11821;51.456;8.844;2023-05-07T07:27:39;15.90;99.90
23305;DHT22;11821;51.456;8.844;2023-05-07T07:30:07;15.70;99.90
23305;DHT22;11821;51.456;8.844;2023-05-07T07:32:36;15.50;99.90
23305;DHT22;11821;51.456;8.844;2023-05-07T07:40:05;15.60;99.90
23305;DHT22;11821;51.456;8.844;2023-05-07T07:49:57;15.50;99.90
23305;DHT22;11821;51.456;8.844;2023-05-07T08:02:13;15.90;99.90
23305;DHT22;11821;51.456;8.844;2023-05-07T08:21:54;16.10;99.90
23305;DHT22;11821;51.456;8.844;2023-05-07T08:24:23;16.30;99.90
23305;DHT22;11821;51.456;8.844;2023-05-07T08:26:49;16.20;99.90
23305;DHT22;11821;51.456;8.844;2023-05-07T08:29:16;16.20;99.90
23305;DHT22;11821;51.456;8.844;2023-05-07T08:31:43;16.30;99.90
23305;DHT22;11821;51.456;8.844;2023-05-07T08:34:09;16.60;99.90
23305;DHT22;11821;51.456;8.844;2023-05-07T08:36:38;16.50;99.90
23305;DHT22;11821;51.456;8.844;2023-05-07T08:39:04;16.50;99.90
23305;DHT22;11821;51.456;8.844;2023-05-07T08:41:31;16.30;99.90
23305;DHT22;11821;51.456;8.844;2023-05-07T08:43:58;16.10;99.90
23305;DHT22;11821;51.456;8.844;2023-05-07T08:46:31;16.00;99.90
23305;DHT22;11821;51.456;8.844;2023-05-07T08:48:58;16.00;99.90
23305;DHT22;11821;51.456;8.844;2023-05-07T08:51:25;16.00;99.90
23305;DHT22;11821;51.456;8.844;2023-05-07T08:53:52;16.10;99.90
23305;DHT22;11821;51.456;8.844;2023-05-07T08:56:24;16.00;99.90
23305;DHT22;11821;51.456;8.844;2023-05-07T08:58:52;16.30;99.90
23305;DHT22;11821;51.456;8.844;2023-05-07T09:01:23;16.30;99.90
23305;DHT22;11821;51.456;8.844;2023-05-07T09:03:52;16.60;99.90
23305;DHT22;11821;51.456;8.844;2023-05-07T09:06:19;16.50;99.90
23305;DHT22;11821;51.456;8.844;2023-05-07T09:08:51;16.60;99.90
23305;DHT22;11821;51.456;8.844;2023-05-07T09:11:22;16.90;99.90
23305;DHT22;11821;51.456;8.844;2023-05-07T09:13:54;17.00;99.90
23305;DHT22;11821;51.456;8.844;2023-05-07T09:18:51;17.00;99.90
23305;DHT22;11821;51.456;8.844;2023-05-07T09:21:19;17.50;99.90
23305;DHT22;11821;51.456;8.844;2023-05-07T09:23:52;17.20;99.90
23305;DHT22;11821;51.456;8.844;2023-05-07T09:26:21;17.10;99.90
23305;DHT22;11821;51.456;8.844;2023-05-07T09:28:48;17.10;99.90
23305;DHT22;11821;51.456;8.844;2023-05-07T09:31:15;17.00;99.90
23305;DHT22;11821;51.456;8.844;2023-05-07T09:33:43;17.30;99.90
23305;DHT22;11821;51.456;8.844;2023-05-07T09:36:11;17.40;99.90
23305;DHT22;11821;51.456;8.844;2023-05-07T09:38:40;17.50;99.90
23305;DHT22;11821;51.456;8.844;2023-05-07T09:41:09;17.40;99.90
23305;DHT22;11821;51.456;8.844;2023-05-07T09:43:54;17.50;99.90
23305;DHT22;11821;51.456;8.844;2023-05-07T09:46:30;17.50;99.90
23305;DHT22;11821;51.456;8.844;2023-05-07T09:56:30;17.90;99.90
23305;DHT22;11821;51.456;8.844;2023-05-07T09:59:00;18.80;99.90
23305;DHT22;11821;51.456;8.844;2023-05-07T10:01:29;18.40;99.90
23305;DHT22;11821;51.456;8.844;2023-05-07T10:06:24;18.60;99.90
23305;DHT22;11821;51.456;8.844;2023-05-07T10:08:54;19.10;99.90
23305;DHT22;11821;51.456;8.844;2023-05-07T10:11:22;18.80;99.90
23305;DHT22;11821;51.456;8.844;2023-05-07T10:13:50;19.00;99.90
23305;DHT22;11821;51.456;8.844;2023-05-07T10:16:18;19.10;99.90
23305;DHT22;11821;51.456;8.844;2023-05-07T10:18:47;19.50;99.90
23305;DHT22;11821;51.456;8.844;2023-05-07T10:21:23;19.40;99.90
23305;DHT22;11821;51.456;8.844;2023-05-07T10:24:03;19.00;99.90
23305;DHT22;11821;51.456;8.844;2023-05-07T10:26:33;18.80;99.90
23305;DHT22;11821;51.456;8.844;2023-05-07T10:29:10;19.20;99.90
23305;DHT22;11821;51.456;8.844;2023-05-07T10:32:30;19.20;99.90
23305;DHT22;11821;51.456;8.844;2023-05-07T10:34:47;19.80;99.90
23305;DHT22;11821;51.456;8.844;2023-05-07T10:37:13;19.80;99.90
23305;DHT22;11821;51.456;8.844;2023-05-07T10:39:41;19.60;99.90
23305;DHT22;11821;51.456;8.844;2023-05-07T10:42:13;19.60;99.90
23305;DHT22;11821;51.456;8.844;2023-05-07T10:44:44;19.70;99.90
23305;DHT22;11821;51.456;8.844;2023-05-07T10:47:17;20.20;99.90
23305;DHT22;11821;51.456;8.844;2023-05-07T10:52:24;20.30;99.90
23305;DHT22;11821;51.456;8.844;2023-05-07T10:57:43;20.70;99.90
23305;DHT22;11821;51.456;8.844;2023-05-07T11:05:38;21.40;99.90
23305;DHT22;11821;51.456;8.844;2023-05-07T11:08:12;21.70;99.90
23305;DHT22;11821;51.456;8.844;2023-05-07T11:11:02;21.20;99.90
23305;DHT22;11821;51.456;8.844;2023-05-07T11:13:47;21.10;99.90
23305;DHT22;11821;51.456;8.844;2023-05-07T11:16:24;21.10;99.90
23305;DHT22;11821;51.456;8.844;2023-05-07T11:18:59;20.90;99.90
23305;DHT22;11821;51.456;8.844;2023-05-07T11:21:39;21.50;99.90
23305;DHT22;11821;51.456;8.844;2023-05-07T11:24:21;21.10;99.90
23305;DHT22;11821;51.456;8.844;2023-05-07T11:26:53;21.40;99.90
23305;DHT22;11821;51.456;8.844;2023-05-07T11:29:22;21.80;99.90
23305;DHT22;11821;51.456;8.844;2023-05-07T11:31:51;21.90;99.90
23305;DHT22;11821;51.456;8.844;2023-05-07T11:34:25;21.80;99.90
23305;DHT22;11821;51.456;8.844;2023-05-07T11:36:56;22.20;99.90
23305;DHT22;11821;51.456;8.844;2023-05-07T11:39:36;21.80;99.90
23305;DHT22;11821;51.456;8.844;2023-05-07T11:42:03;21.80;99.90
23305;DHT22;11821;51.456;8.844;2023-05-07T11:44:45;22.10;99.90
23305;DHT22;11821;51.456;8.844;2023-05-07T11:47:17;22.10;99.90
23305;DHT22;11821;51.456;8.844;2023-05-07T11:52:10;22.40;99.90
23305;DHT22;11821;51.456;8.844;2023-05-07T11:54:38;22.40;99.90
23305;DHT22;11821;51.456;8.844;2023-05-07T11:57:05;22.60;99.90
23305;DHT22;11821;51.456;8.844;2023-05-07T11:59:39;23.20;99.90
23305;DHT22;11821;51.456;8.844;2023-05-07T12:02:07;23.00;99.90
23305;DHT22;11821;51.456;8.844;2023-05-07T12:04:33;22.80;99.90
23305;DHT22;11821;51.456;8.844;2023-05-07T12:07:00;22.70;99.90
23305;DHT22;11821;51.456;8.844;2023-05-07T12:09:27;23.10;99.90
23305;DHT22;11821;51.456;8.844;2023-05-07T12:11:53;23.60;99.90
23305;DHT22;11821;51.456;8.844;2023-05-07T12:14:19;23.40;99.90
23305;DHT22;11821;51.456;8.844;2023-05-07T12:16:46;23.70;99.90
23305;DHT22;11821;51.456;8.844;2023-05-07T12:19:13;23.50;99.90
23305;DHT22;11821;51.456;8.844;2023-05-07T12:21:40;23.30;99.90
23305;DHT22;11821;51.456;8.844;2023-05-07T12:24:07;23.30;99.90
23305;DHT22;11821;51.456;8.844;2023-05-07T12:26:38;23.30;99.90
23305;DHT22;11821;51.456;8.844;2023-05-07T12:29:07;23.40;99.90
23305;DHT22;11821;51.456;8.844;2023-05-07T12:31:35;23.50;99.90
23305;DHT22;11821;51.456;8.844;2023-05-07T12:34:02;23.30;99.90
23305;DHT22;11821;51.456;8.844;2023-05-07T12:36:37;23.50;99.90
23305;DHT22;11821;51.456;8.844;2023-05-07T12:39:06;23.50;99.90
23305;DHT22;11821;51.456;8.844;2023-05-07T12:41:58;23.40;99.90
23305;DHT22;11821;51.456;8.844;2023-05-07T12:44:23;23.50;99.90
23305;DHT22;11821;51.456;8.844;2023-05-07T12:46:51;23.80;99.90
23305;DHT22;11821;51.456;8.844;2023-05-07T12:49:17;23.80;99.90
23305;DHT22;11821;51.456;8.844;2023-05-07T12:51:44;24.20;99.90
23305;DHT22;11821;51.456;8.844;2023-05-07T12:54:12;24.30;99.90
23305;DHT22;11821;51.456;8.844;2023-05-07T12:57:15;23.70;99.90
23305;DHT22;11821;51.456;8.844;2023-05-07T12:59:44;23.30;99.90
23305;DHT22;11821;51.456;8.844;2023-05-07T13:02:11;23.70;99.90
23305;DHT22;11821;51.456;8.844;2023-05-07T13:04:38;23.80;99.90
23305;DHT22;11821;51.456;8.844;2023-05-07T13:07:04;24.00;99.90
23305;DHT22;11821;51.456;8.844;2023-05-07T13:09:32;24.00;99.90
23305;DHT22;11821;51.456;8.844;2023-05-07T13:12:03;23.50;99.90
23305;DHT22;11821;51.456;8.844;2023-05-07T13:14:29;23.10;99.90
23305;DHT22;11821;51.456;8.844;2023-05-07T13:17:01;23.00;99.90
23305;DHT22;11821;51.456;8.844;2023-05-07T13:19:27;23.30;99.90
23305;DHT22;11821;51.456;8.844;2023-05-07T13:21:53;23.20;99.90
23305;DHT22;11821;51.456;8.844;2023-05-07T13:24:20;22.90;99.90
23305;DHT22;11821;51.456;8.844;2023-05-07T13:26:46;22.70;99.90
23305;DHT22;11821;51.456;8.844;2023-05-07T13:29:12;22.70;99.90
23305;DHT22;11821;51.456;8.844;2023-05-07T13:31:39;22.90;99.90
23305;DHT22;11821;51.456;8.844;2023-05-07T13:34:08;23.30;99.90
23305;DHT22;11821;51.456;8.844;2023-05-07T13:36:34;23.10;99.90
23305;DHT22;11821;51.456;8.844;2023-05-07T13:39:03;22.90;99.90
23305;DHT22;11821;51.456;8.844;2023-05-07T13:41:29;22.90;99.90
23305;DHT22;11821;51.456;8.844;2023-05-07T13:43:56;22.20;99.90
23305;DHT22;11821;51.456;8.844;2023-05-07T13:46:22;22.40;99.90
23305;DHT22;11821;51.456;8.844;2023-05-07T13:48:48;22.40;99.90
23305;DHT22;11821;51.456;8.844;2023-05-07T13:51:14;22.00;99.90
23305;DHT22;11821;51.456;8.844;2023-05-07T13:53:40;22.20;99.90
23305;DHT22;11821;51.456;8.844;2023-05-07T13:56:07;22.10;99.90
23305;DHT22;11821;51.456;8.844;2023-05-07T13:58:33;21.90;99.90
23305;DHT22;11821;51.456;8.844;2023-05-07T14:00:59;22.00;99.90
23305;DHT22;11821;51.456;8.844;2023-05-07T14:03:25;21.90;99.90
23305;DHT22;11821;51.456;8.844;2023-05-07T14:05:51;22.10;99.90
23305;DHT22;11821;51.456;8.844;2023-05-07T14:08:18;22.10;99.90
23305;DHT22;11821;51.456;8.844;2023-05-07T14:10:46;22.30;99.90
23305;DHT22;11821;51.456;8.844;2023-05-07T14:13:12;22.00;99.90
23305;DHT22;11821;51.456;8.844;2023-05-07T14:15:38;22.20;99.90
23305;DHT22;11821;51.456;8.844;2023-05-07T14:18:05;22.50;99.90
23305;DHT22;11821;51.456;8.844;2023-05-07T14:20:31;22.60;99.90
23305;DHT22;11821;51.456;8.844;2023-05-07T14:22:58;22.10;99.90
23305;DHT22;11821;51.456;8.844;2023-05-07T14:25:24;21.90;99.90
23305;DHT22;11821;51.456;8.844;2023-05-07T14:27:51;21.70;99.90
23305;DHT22;11821;51.456;8.844;2023-05-07T14:30:17;21.50;99.90
23305;DHT22;11821;51.456;8.844;2023-05-07T14:32:44;21.40;99.90
23305;DHT22;11821;51.456;8.844;2023-05-07T14:35:10;21.20;99.90
23305;DHT22;11821;51.456;8.844;2023-05-07T14:37:36;21.30;99.90
23305;DHT22;11821;51.456;8.844;2023-05-07T14:40:03;20.90;99.90
23305;DHT22;11821;51.456;8.844;2023-05-07T14:42:29;21.20;99.90
23305;DHT22;11821;51.456;8.844;2023-05-07T14:44:55;20.80;99.90
23305;DHT22;11821;51.456;8.844;2023-05-07T14:47:21;20.80;99.90
23305;DHT22;11821;51.456;8.844;2023-05-07T14:49:47;20.90;99.90
23305;DHT22;11821;51.456;8.844;2023-05-07T14:52:14;20.80;99.90
23305;DHT22;11821;51.456;8.844;2023-05-07T14:54:40;21.10;99.90
23305;DHT22;11821;51.456;8.844;2023-05-07T14:57:08;21.30;99.90
23305;DHT22;11821;51.456;8.844;2023-05-07T14:59:35;21.30;99.90
23305;DHT22;11821;51.456;8.844;2023-05-07T15:02:03;21.50;99.90
23305;DHT22;11821;51.456;8.844;2023-05-07T15:04:31;21.50;99.90
23305;DHT22;11821;51.456;8.844;2023-05-07T15:06:57;21.60;99.90
23305;DHT22;11821;51.456;8.844;2023-05-07T15:09:23;21.40;99.90
23305;DHT22;11821;51.456;8.844;2023-05-07T15:11:49;21.20;99.90
23305;DHT22;11821;51.456;8.844;2023-05-07T15:14:16;21.00;99.90
23305;DHT22;11821;51.456;8.844;2023-05-07T15:16:42;21.30;99.90
23305;DHT22;11821;51.456;8.844;2023-05-07T15:19:08;21.10;99.90
23305;DHT22;11821;51.456;8.844;2023-05-07T15:21:35;21.20;99.90
23305;DHT22;11821;51.456;8.844;2023-05-07T15:24:02;20.80;99.90
23305;DHT22;11821;51.456;8.844;2023-05-07T15:26:28;20.90;99.90
23305;DHT22;11821;51.456;8.844;2023-05-07T15:28:57;20.80;99.90
23305;DHT22;11821;51.456;8.844;2023-05-07T15:31:27;20.70;99.90
23305;DHT22;11821;51.456;8.844;2023-05-07T15:33:53;20.70;99.90
23305;DHT22;11821;51.456;8.844;2023-05-07T15:36:20;20.80;99.90
23305;DHT22;11821;51.456;8.844;2023-05-07T15:38:46;20.70;99.90
23305;DHT22;11821;51.456;8.844;2023-05-07T15:41:13;20.50;99.90
23305;DHT22;11821;51.456;8.844;2023-05-07T15:43:45;20.70;99.90
23305;DHT22;11821;51.456;8.844;2023-05-07T15:46:12;20.50;99.90
23305;DHT22;11821;51.456;8.844;2023-05-07T15:48:42;20.30;99.90
23305;DHT22;11821;51.456;8.844;2023-05-07T15:51:09;20.10;99.90
23305;DHT22;11821;51.456;8.844;2023-05-07T15:53:35;20.10;99.90
23305;DHT22;11821;51.456;8.844;2023-05-07T15:56:02;20.30;99.90
23305;DHT22;11821;51.456;8.844;2023-05-07T15:58:28;20.10;99.90
23305;DHT22;11821;51.456;8.844;2023-05-07T16:00:55;19.80;99.90
23305;DHT22;11821;51.456;8.844;2023-05-07T16:03:22;19.80;99.90
23305;DHT22;11821;51.456;8.844;2023-05-07T16:05:48;19.80;99.90
23305;DHT22;11821;51.456;8.844;2023-05-07T16:08:14;19.90;99.90
23305;DHT22;11821;51.456;8.844;2023-05-07T16:10:41;20.00;99.90
23305;DHT22;11821;51.456;8.844;2023-05-07T16:13:07;20.00;99.90
23305;DHT22;11821;51.456;8.844;2023-05-07T16:15:42;20.00;99.90
23305;DHT22;11821;51.456;8.844;2023-05-07T16:22:10;19.70;99.90
23305;DHT22;11821;51.456;8.844;2023-05-07T16:24:37;19.80;99.90
23305;DHT22;11821;51.456;8.844;2023-05-07T16:27:03;19.70;99.90
23305;DHT22;11821;51.456;8.844;2023-05-07T16:29:31;19.60;99.90
23305;DHT22;11821;51.456;8.844;2023-05-07T16:31:57;19.60;99.90
23305;DHT22;11821;51.456;8.844;2023-05-07T16:34:24;19.50;99.90
23305;DHT22;11821;51.456;8.844;2023-05-07T16:36:50;19.70;99.90
23305;DHT22;11821;51.456;8.844;2023-05-07T16:39:16;19.90;99.90
23305;DHT22;11821;51.456;8.844;2023-05-07T16:41:43;19.80;99.90
23305;DHT22;11821;51.456;8.844;2023-05-07T16:44:10;19.80;99.90
23305;DHT22;11821;51.456;8.844;2023-05-07T16:46:36;19.90;99.90
23305;DHT22;11821;51.456;8.844;2023-05-07T16:49:03;19.90;99.90
23305;DHT22;11821;51.456;8.844;2023-05-07T16:51:29;20.10;99.90
23305;DHT22;11821;51.456;8.844;2023-05-07T16:53:55;20.00;99.90
23305;DHT22;11821;51.456;8.844;2023-05-07T16:56:22;20.00;99.90
23305;DHT22;11821;51.456;8.844;2023-05-07T16:58:48;19.90;99.90
23305;DHT22;11821;51.456;8.844;2023-05-07T17:01:14;19.70;99.90
23305;DHT22;11821;51.456;8.844;2023-05-07T17:03:41;19.90;99.90
23305;DHT22;11821;51.456;8.844;2023-05-07T17:06:08;19.80;99.90
23305;DHT22;11821;51.456;8.844;2023-05-07T17:08:39;19.50;99.90
23305;DHT22;11821;51.456;8.844;2023-05-07T17:11:06;19.50;99.90
23305;DHT22;11821;51.456;8.844;2023-05-07T17:13:32;19.70;99.90
23305;DHT22;11821;51.456;8.844;2023-05-07T17:15:58;19.60;99.90
23305;DHT22;11821;51.456;8.844;2023-05-07T17:18:25;19.40;99.90
23305;DHT22;11821;51.456;8.844;2023-05-07T17:20:51;19.20;99.90
23305;DHT22;11821;51.456;8.844;2023-05-07T17:23:18;18.80;99.90
23305;DHT22;11821;51.456;8.844;2023-05-07T17:25:44;18.80;99.90
23305;DHT22;11821;51.456;8.844;2023-05-07T17:28:11;19.00;99.90
23305;DHT22;11821;51.456;8.844;2023-05-07T17:30:37;19.00;99.90
23305;DHT22;11821;51.456;8.844;2023-05-07T17:33:04;19.00;99.90
23305;DHT22;11821;51.456;8.844;2023-05-07T17:35:31;19.10;99.90
23305;DHT22;11821;51.456;8.844;2023-05-07T17:37:58;18.70;99.90
23305;DHT22;11821;51.456;8.844;2023-05-07T17:40:24;18.40;99.90
23305;DHT22;11821;51.456;8.844;2023-05-07T17:42:51;18.50;99.90
23305;DHT22;11821;51.456;8.844;2023-05-07T17:45:18;18.50;99.90
23305;DHT22;11821;51.456;8.844;2023-05-07T17:47:44;18.60;99.90
23305;DHT22;11821;51.456;8.844;2023-05-07T17:50:11;18.60;99.90
23305;DHT22;11821;51.456;8.844;2023-05-07T17:52:39;18.80;99.90
23305;DHT22;11821;51.456;8.844;2023-05-07T17:55:06;19.00;99.90
23305;DHT22;11821;51.456;8.844;2023-05-07T17:57:33;18.90;99.90
23305;DHT22;11821;51.456;8.844;2023-05-07T18:00:06;18.80;99.90
23305;DHT22;11821;51.456;8.844;2023-05-07T18:02:32;18.70;99.90
23305;DHT22;11821;51.456;8.844;2023-05-07T18:04:58;18.50;99.90
23305;DHT22;11821;51.456;8.844;2023-05-07T18:07:25;18.60;99.90
23305;DHT22;11821;51.456;8.844;2023-05-07T18:09:51;18.70;99.90
23305;DHT22;11821;51.456;8.844;2023-05-07T18:12:18;18.80;99.90
23305;DHT22;11821;51.456;8.844;2023-05-07T18:14:44;18.80;99.90
23305;DHT22;11821;51.456;8.844;2023-05-07T18:17:12;18.80;99.90
23305;DHT22;11821;51.456;8.844;2023-05-07T18:19:39;18.60;99.90
23305;DHT22;11821;51.456;8.844;2023-05-07T18:22:05;18.40;99.90
23305;DHT22;11821;51.456;8.844;2023-05-07T18:24:31;18.40;99.90
23305;DHT22;11821;51.456;8.844;2023-05-07T18:26:58;18.40;99.90
23305;DHT22;11821;51.456;8.844;2023-05-07T18:29:24;18.40;99.90
23305;DHT22;11821;51.456;8.844;2023-05-07T18:31:50;18.40;99.90
23305;DHT22;11821;51.456;8.844;2023-05-07T18:34:17;18.30;99.90
23305;DHT22;11821;51.456;8.844;2023-05-07T18:36:43;18.10;99.90
23305;DHT22;11821;51.456;8.844;2023-05-07T18:39:09;18.10;99.90
23305;DHT22;11821;51.456;8.844;2023-05-07T18:41:36;18.30;99.90
23305;DHT22;11821;51.456;8.844;2023-05-07T18:44:02;18.20;99.90
23305;DHT22;11821;51.456;8.844;2023-05-07T18:46:28;18.00;99.90
23305;DHT22;11821;51.456;8.844;2023-05-07T18:48:55;17.90;99.90
23305;DHT22;11821;51.456;8.844;2023-05-07T18:51:21;17.60;99.90
23305;DHT22;11821;51.456;8.844;2023-05-07T18:53:47;17.50;99.90
23305;DHT22;11821;51.456;8.844;2023-05-07T18:56:14;17.40;99.90
23305;DHT22;11821;51.456;8.844;2023-05-07T18:58:40;17.30;99.90
23305;DHT22;11821;51.456;8.844;2023-05-07T19:01:06;17.30;99.90
23305;DHT22;11821;51.456;8.844;2023-05-07T19:03:36;17.40;99.90
23305;DHT22;11821;51.456;8.844;2023-05-07T19:06:02;17.40;99.90
23305;DHT22;11821;51.456;8.844;2023-05-07T19:08:30;17.30;99.90
23305;DHT22;11821;51.456;8.844;2023-05-07T19:10:57;17.10;99.90
23305;DHT22;11821;51.456;8.844;2023-05-07T19:13:24;17.20;99.90
23305;DHT22;11821;51.456;8.844;2023-05-07T19:15:53;17.20;99.90
23305;DHT22;11821;51.456;8.844;2023-05-07T19:18:19;17.00;99.90
23305;DHT22;11821;51.456;8.844;2023-05-07T19:20:47;17.00;99.90
23305;DHT22;11821;51.456;8.844;2023-05-07T19:23:15;16.80;99.90